sensor_id;sensor_type;location;lat;lon;timestamp;P1;durP1;ratioP1;P2;durP2;ratioP2
52724;SDS011;38621;52.830;6.914;2023-02-11T00:01:49;13.60;;;7.82;;
52724;SDS011;38621;52.830;6.914;2023-02-11T00:04:14;11.10;;;6.47;;
52724;SDS011;38621;52.830;6.914;2023-02-11T00:06:41;12.95;;;6.05;;
52724;SDS011;38621;52.830;6.914;2023-02-11T00:09:06;11.73;;;6.45;;
52724;SDS011;38621;52.830;6.914;2023-02-11T00:11:32;10.75;;;6.22;;
52724;SDS011;38621;52.830;6.914;2023-02-11T00:13:59;10.20;;;6.30;;
52724;SDS011;38621;52.830;6.914;2023-02-11T00:16:27;14.35;;;6.80;;
52724;SDS011;38621;52.830;6.914;2023-02-11T00:18:53;12.00;;;7.07;;
52724;SDS011;38621;52.830;6.914;2023-02-11T00:21:20;13.63;;;6.20;;
52724;SDS011;38621;52.830;6.914;2023-02-11T00:23:50;11.85;;;5.50;;
52724;SDS011;38621;52.830;6.914;2023-02-11T00:26:20;12.05;;;6.30;;
52724;SDS011;38621;52.830;6.914;2023-02-11T00:28:48;12.25;;;6.07;;
52724;SDS011;38621;52.830;6.914;2023-02-11T00:31:15;13.18;;;6.07;;
52724;SDS011;38621;52.830;6.914;2023-02-11T00:33:42;9.10;;;5.65;;
52724;SDS011;38621;52.830;6.914;2023-02-11T00:36:13;14.85;;;5.85;;
52724;SDS011;38621;52.830;6.914;2023-02-11T00:38:41;13.07;;;6.20;;
52724;SDS011;38621;52.830;6.914;2023-02-11T00:41:08;11.07;;;6.50;;
52724;SDS011;38621;52.830;6.914;2023-02-11T00:43:34;12.23;;;6.00;;
52724;SDS011;38621;52.830;6.914;2023-02-11T00:46:01;12.48;;;5.78;;
52724;SDS011;38621;52.830;6.914;2023-02-11T00:48:26;11.18;;;6.40;;
52724;SDS011;38621;52.830;6.914;2023-02-11T00:50:52;10.63;;;5.85;;
52724;SDS011;38621;52.830;6.914;2023-02-11T00:53:18;9.23;;;5.72;;
52724;SDS011;38621;52.830;6.914;2023-02-11T00:55:44;13.38;;;5.80;;
52724;SDS011;38621;52.830;6.914;2023-02-11T00:58:09;9.18;;;5.88;;
52724;SDS011;38621;52.830;6.914;2023-02-11T01:00:35;11.25;;;5.68;;
52724;SDS011;38621;52.830;6.914;2023-02-11T01:03:01;11.50;;;5.65;;
52724;SDS011;38621;52.830;6.914;2023-02-11T01:05:27;9.65;;;4.70;;
52724;SDS011;38621;52.830;6.914;2023-02-11T01:07:53;12.68;;;5.75;;
52724;SDS011;38621;52.830;6.914;2023-02-11T01:10:19;10.60;;;5.30;;
52724;SDS011;38621;52.830;6.914;2023-02-11T01:12:45;15.15;;;6.28;;
52724;SDS011;38621;52.830;6.914;2023-02-11T01:15:11;10.57;;;6.22;;
52724;SDS011;38621;52.830;6.914;2023-02-11T01:17:39;11.30;;;5.70;;
52724;SDS011;38621;52.830;6.914;2023-02-11T01:20:05;9.80;;;4.68;;
52724;SDS011;38621;52.830;6.914;2023-02-11T01:22:32;15.88;;;5.65;;
52724;SDS011;38621;52.830;6.914;2023-02-11T01:25:01;13.52;;;6.00;;
52724;SDS011;38621;52.830;6.914;2023-02-11T01:27:27;11.40;;;5.50;;
52724;SDS011;38621;52.830;6.914;2023-02-11T01:29:53;9.57;;;5.18;;
52724;SDS011;38621;52.830;6.914;2023-02-11T01:32:18;13.23;;;5.63;;
52724;SDS011;38621;52.830;6.914;2023-02-11T01:34:44;12.32;;;5.40;;
52724;SDS011;38621;52.830;6.914;2023-02-11T01:37:10;10.88;;;5.00;;
52724;SDS011;38621;52.830;6.914;2023-02-11T01:39:35;13.55;;;4.95;;
52724;SDS011;38621;52.830;6.914;2023-02-11T01:42:01;13.93;;;5.15;;
52724;SDS011;38621;52.830;6.914;2023-02-11T01:44:35;13.13;;;5.47;;
52724;SDS011;38621;52.830;6.914;2023-02-11T01:47:02;11.65;;;5.05;;
52724;SDS011;38621;52.830;6.914;2023-02-11T01:49:31;15.70;;;6.10;;
52724;SDS011;38621;52.830;6.914;2023-02-11T01:54:32;15.73;;;6.80;;
52724;SDS011;38621;52.830;6.914;2023-02-11T01:57:20;11.23;;;4.75;;
52724;SDS011;38621;52.830;6.914;2023-02-11T01:59:55;8.93;;;4.82;;
52724;SDS011;38621;52.830;6.914;2023-02-11T02:02:33;11.95;;;4.75;;
52724;SDS011;38621;52.830;6.914;2023-02-11T02:05:23;12.73;;;4.88;;
52724;SDS011;38621;52.830;6.914;2023-02-11T02:10:33;10.45;;;4.32;;
52724;SDS011;38621;52.830;6.914;2023-02-11T02:13:00;12.50;;;6.40;;
52724;SDS011;38621;52.830;6.914;2023-02-11T02:15:27;10.90;;;4.85;;
52724;SDS011;38621;52.830;6.914;2023-02-11T02:23:41;9.07;;;4.32;;
52724;SDS011;38621;52.830;6.914;2023-02-11T02:41:07;12.95;;;5.45;;
52724;SDS011;38621;52.830;6.914;2023-02-11T02:43:17;15.25;;;6.40;;
52724;SDS011;38621;52.830;6.914;2023-02-11T02:45:45;9.20;;;5.68;;
52724;SDS011;38621;52.830;6.914;2023-02-11T02:51:02;10.32;;;5.82;;
52724;SDS011;38621;52.830;6.914;2023-02-11T02:53:57;12.05;;;5.65;;
52724;SDS011;38621;52.830;6.914;2023-02-11T02:56:39;11.10;;;5.63;;
52724;SDS011;38621;52.830;6.914;2023-02-11T03:02:28;15.45;;;6.22;;
52724;SDS011;38621;52.830;6.914;2023-02-11T03:08:44;13.05;;;6.07;;
52724;SDS011;38621;52.830;6.914;2023-02-11T03:10:47;11.93;;;5.78;;
52724;SDS011;38621;52.830;6.914;2023-02-11T03:13:15;13.82;;;6.10;;
52724;SDS011;38621;52.830;6.914;2023-02-11T03:15:45;13.18;;;6.72;;
52724;SDS011;38621;52.830;6.914;2023-02-11T03:18:16;15.25;;;5.93;;
52724;SDS011;38621;52.830;6.914;2023-02-11T03:20:46;21.33;;;8.55;;
52724;SDS011;38621;52.830;6.914;2023-02-11T03:23:15;14.43;;;6.55;;
52724;SDS011;38621;52.830;6.914;2023-02-11T03:25:49;12.13;;;6.22;;
52724;SDS011;38621;52.830;6.914;2023-02-11T03:28:42;13.95;;;6.60;;
52724;SDS011;38621;52.830;6.914;2023-02-11T03:33:53;15.45;;;7.35;;
52724;SDS011;38621;52.830;6.914;2023-02-11T03:36:53;15.32;;;7.63;;
52724;SDS011;38621;52.830;6.914;2023-02-11T03:42:09;14.27;;;7.30;;
52724;SDS011;38621;52.830;6.914;2023-02-11T03:44:48;14.55;;;6.93;;
52724;SDS011;38621;52.830;6.914;2023-02-11T03:47:18;13.68;;;7.05;;
52724;SDS011;38621;52.830;6.914;2023-02-11T03:49:48;17.52;;;7.90;;
52724;SDS011;38621;52.830;6.914;2023-02-11T03:52:16;15.55;;;9.13;;
52724;SDS011;38621;52.830;6.914;2023-02-11T03:54:45;15.93;;;8.65;;
52724;SDS011;38621;52.830;6.914;2023-02-11T03:57:15;15.20;;;7.65;;
52724;SDS011;38621;52.830;6.914;2023-02-11T03:59:56;15.52;;;7.63;;
52724;SDS011;38621;52.830;6.914;2023-02-11T04:02:27;11.63;;;7.10;;
52724;SDS011;38621;52.830;6.914;2023-02-11T04:04:55;16.65;;;7.97;;
52724;SDS011;38621;52.830;6.914;2023-02-11T04:07:21;16.00;;;7.63;;
52724;SDS011;38621;52.830;6.914;2023-02-11T04:09:46;14.88;;;7.45;;
52724;SDS011;38621;52.830;6.914;2023-02-11T04:12:12;14.57;;;8.07;;
52724;SDS011;38621;52.830;6.914;2023-02-11T04:14:38;16.88;;;7.10;;
52724;SDS011;38621;52.830;6.914;2023-02-11T04:17:03;12.40;;;6.60;;
52724;SDS011;38621;52.830;6.914;2023-02-11T04:19:29;15.32;;;9.25;;
52724;SDS011;38621;52.830;6.914;2023-02-11T04:21:55;20.63;;;9.25;;
52724;SDS011;38621;52.830;6.914;2023-02-11T04:24:21;15.88;;;8.38;;
52724;SDS011;38621;52.830;6.914;2023-02-11T04:26:46;15.52;;;9.13;;
52724;SDS011;38621;52.830;6.914;2023-02-11T04:29:12;19.70;;;9.60;;
52724;SDS011;38621;52.830;6.914;2023-02-11T04:31:38;32.60;;;10.82;;
52724;SDS011;38621;52.830;6.914;2023-02-11T04:34:03;18.00;;;8.95;;
52724;SDS011;38621;52.830;6.914;2023-02-11T04:36:29;16.17;;;9.65;;
52724;SDS011;38621;52.830;6.914;2023-02-11T04:38:55;14.77;;;8.35;;
52724;SDS011;38621;52.830;6.914;2023-02-11T04:41:21;15.55;;;9.25;;
52724;SDS011;38621;52.830;6.914;2023-02-11T04:43:46;16.85;;;9.10;;
52724;SDS011;38621;52.830;6.914;2023-02-11T04:46:12;16.85;;;8.73;;
52724;SDS011;38621;52.830;6.914;2023-02-11T04:48:38;20.38;;;10.68;;
52724;SDS011;38621;52.830;6.914;2023-02-11T04:51:04;16.35;;;9.43;;
52724;SDS011;38621;52.830;6.914;2023-02-11T04:53:30;16.10;;;9.27;;
52724;SDS011;38621;52.830;6.914;2023-02-11T04:55:55;18.83;;;8.75;;
52724;SDS011;38621;52.830;6.914;2023-02-11T04:58:21;15.70;;;8.95;;
52724;SDS011;38621;52.830;6.914;2023-02-11T05:00:48;16.38;;;8.23;;
52724;SDS011;38621;52.830;6.914;2023-02-11T05:03:14;19.48;;;9.63;;
52724;SDS011;38621;52.830;6.914;2023-02-11T05:05:40;20.45;;;10.25;;
52724;SDS011;38621;52.830;6.914;2023-02-11T05:08:09;17.13;;;9.88;;
52724;SDS011;38621;52.830;6.914;2023-02-11T05:10:35;15.77;;;9.10;;
52724;SDS011;38621;52.830;6.914;2023-02-11T05:13:01;16.75;;;9.20;;
52724;SDS011;38621;52.830;6.914;2023-02-11T05:15:27;19.05;;;9.85;;
52724;SDS011;38621;52.830;6.914;2023-02-11T05:17:53;18.38;;;9.40;;
52724;SDS011;38621;52.830;6.914;2023-02-11T05:20:19;16.67;;;9.07;;
52724;SDS011;38621;52.830;6.914;2023-02-11T05:22:45;18.90;;;9.85;;
52724;SDS011;38621;52.830;6.914;2023-02-11T05:25:11;21.05;;;9.85;;
52724;SDS011;38621;52.830;6.914;2023-02-11T05:27:36;15.52;;;9.18;;
52724;SDS011;38621;52.830;6.914;2023-02-11T05:30:02;19.65;;;10.15;;
52724;SDS011;38621;52.830;6.914;2023-02-11T05:32:29;18.10;;;9.30;;
52724;SDS011;38621;52.830;6.914;2023-02-11T05:34:55;19.20;;;11.07;;
52724;SDS011;38621;52.830;6.914;2023-02-11T05:37:20;18.85;;;10.73;;
52724;SDS011;38621;52.830;6.914;2023-02-11T05:39:46;19.92;;;9.25;;
52724;SDS011;38621;52.830;6.914;2023-02-11T05:42:12;19.35;;;10.07;;
52724;SDS011;38621;52.830;6.914;2023-02-11T05:44:38;20.63;;;10.40;;
52724;SDS011;38621;52.830;6.914;2023-02-11T05:47:04;18.42;;;10.40;;
52724;SDS011;38621;52.830;6.914;2023-02-11T05:49:32;17.40;;;9.93;;
52724;SDS011;38621;52.830;6.914;2023-02-11T05:51:58;21.35;;;10.07;;
52724;SDS011;38621;52.830;6.914;2023-02-11T05:54:24;20.38;;;10.50;;
52724;SDS011;38621;52.830;6.914;2023-02-11T05:56:50;19.25;;;10.35;;
52724;SDS011;38621;52.830;6.914;2023-02-11T05:59:16;20.45;;;10.45;;
52724;SDS011;38621;52.830;6.914;2023-02-11T06:01:41;18.48;;;10.63;;
52724;SDS011;38621;52.830;6.914;2023-02-11T06:04:07;19.02;;;9.85;;
52724;SDS011;38621;52.830;6.914;2023-02-11T06:06:33;22.90;;;11.45;;
52724;SDS011;38621;52.830;6.914;2023-02-11T06:08:59;20.40;;;10.93;;
52724;SDS011;38621;52.830;6.914;2023-02-11T06:11:24;18.73;;;10.52;;
52724;SDS011;38621;52.830;6.914;2023-02-11T06:13:50;17.48;;;10.50;;
52724;SDS011;38621;52.830;6.914;2023-02-11T06:16:16;19.73;;;9.82;;
52724;SDS011;38621;52.830;6.914;2023-02-11T06:18:42;22.42;;;12.35;;
52724;SDS011;38621;52.830;6.914;2023-02-11T06:21:11;18.48;;;10.18;;
52724;SDS011;38621;52.830;6.914;2023-02-11T06:23:37;24.23;;;11.70;;
52724;SDS011;38621;52.830;6.914;2023-02-11T06:26:03;23.70;;;10.88;;
52724;SDS011;38621;52.830;6.914;2023-02-11T06:28:31;19.10;;;11.18;;
52724;SDS011;38621;52.830;6.914;2023-02-11T06:30:58;18.48;;;10.95;;
52724;SDS011;38621;52.830;6.914;2023-02-11T06:33:30;18.45;;;10.60;;
52724;SDS011;38621;52.830;6.914;2023-02-11T06:35:56;22.80;;;11.75;;
52724;SDS011;38621;52.830;6.914;2023-02-11T06:38:22;22.05;;;12.40;;
52724;SDS011;38621;52.830;6.914;2023-02-11T06:40:47;20.02;;;11.40;;
52724;SDS011;38621;52.830;6.914;2023-02-11T06:43:14;23.52;;;12.48;;
52724;SDS011;38621;52.830;6.914;2023-02-11T06:45:40;23.65;;;11.02;;
52724;SDS011;38621;52.830;6.914;2023-02-11T06:48:06;21.60;;;11.38;;
52724;SDS011;38621;52.830;6.914;2023-02-11T06:50:31;23.17;;;13.00;;
52724;SDS011;38621;52.830;6.914;2023-02-11T06:52:57;20.73;;;11.18;;
52724;SDS011;38621;52.830;6.914;2023-02-11T06:55:24;25.17;;;12.27;;
52724;SDS011;38621;52.830;6.914;2023-02-11T06:57:50;23.40;;;12.05;;
52724;SDS011;38621;52.830;6.914;2023-02-11T07:00:15;20.42;;;11.18;;
52724;SDS011;38621;52.830;6.914;2023-02-11T07:02:42;22.67;;;12.38;;
52724;SDS011;38621;52.830;6.914;2023-02-11T07:05:08;28.67;;;13.48;;
52724;SDS011;38621;52.830;6.914;2023-02-11T07:07:34;20.95;;;11.45;;
52724;SDS011;38621;52.830;6.914;2023-02-11T07:10:00;23.73;;;12.85;;
52724;SDS011;38621;52.830;6.914;2023-02-11T07:12:28;28.65;;;12.63;;
52724;SDS011;38621;52.830;6.914;2023-02-11T07:14:54;28.50;;;12.73;;
52724;SDS011;38621;52.830;6.914;2023-02-11T07:17:20;22.77;;;12.63;;
52724;SDS011;38621;52.830;6.914;2023-02-11T07:19:46;23.60;;;12.70;;
52724;SDS011;38621;52.830;6.914;2023-02-11T07:22:12;26.20;;;13.48;;
52724;SDS011;38621;52.830;6.914;2023-02-11T07:24:38;28.73;;;13.68;;
52724;SDS011;38621;52.830;6.914;2023-02-11T07:27:04;25.55;;;13.82;;
52724;SDS011;38621;52.830;6.914;2023-02-11T07:29:29;27.27;;;13.73;;
52724;SDS011;38621;52.830;6.914;2023-02-11T07:31:55;24.73;;;12.25;;
52724;SDS011;38621;52.830;6.914;2023-02-11T07:34:21;26.83;;;13.75;;
52724;SDS011;38621;52.830;6.914;2023-02-11T07:36:46;27.48;;;14.70;;
52724;SDS011;38621;52.830;6.914;2023-02-11T07:39:13;25.45;;;13.65;;
52724;SDS011;38621;52.830;6.914;2023-02-11T07:41:39;26.55;;;13.98;;
52724;SDS011;38621;52.830;6.914;2023-02-11T07:44:05;27.63;;;13.18;;
52724;SDS011;38621;52.830;6.914;2023-02-11T07:46:31;25.67;;;13.50;;
52724;SDS011;38621;52.830;6.914;2023-02-11T07:48:58;25.70;;;14.07;;
52724;SDS011;38621;52.830;6.914;2023-02-11T07:51:28;25.95;;;13.05;;
52724;SDS011;38621;52.830;6.914;2023-02-11T07:53:56;28.30;;;13.38;;
52724;SDS011;38621;52.830;6.914;2023-02-11T07:56:23;26.08;;;14.00;;
52724;SDS011;38621;52.830;6.914;2023-02-11T07:58:49;25.45;;;12.82;;
52724;SDS011;38621;52.830;6.914;2023-02-11T08:01:16;25.88;;;13.95;;
52724;SDS011;38621;52.830;6.914;2023-02-11T08:03:46;22.58;;;13.02;;
52724;SDS011;38621;52.830;6.914;2023-02-11T08:06:13;21.45;;;12.65;;
52724;SDS011;38621;52.830;6.914;2023-02-11T08:08:40;25.55;;;12.40;;
52724;SDS011;38621;52.830;6.914;2023-02-11T08:11:07;20.52;;;11.57;;
52724;SDS011;38621;52.830;6.914;2023-02-11T08:13:34;24.05;;;12.80;;
52724;SDS011;38621;52.830;6.914;2023-02-11T08:16:01;25.17;;;11.95;;
52724;SDS011;38621;52.830;6.914;2023-02-11T08:18:27;22.40;;;11.48;;
52724;SDS011;38621;52.830;6.914;2023-02-11T08:20:53;26.38;;;12.88;;
52724;SDS011;38621;52.830;6.914;2023-02-11T08:23:19;19.45;;;12.77;;
52724;SDS011;38621;52.830;6.914;2023-02-11T08:25:45;24.45;;;12.98;;
52724;SDS011;38621;52.830;6.914;2023-02-11T08:28:10;26.52;;;12.13;;
52724;SDS011;38621;52.830;6.914;2023-02-11T08:30:36;22.52;;;11.98;;
52724;SDS011;38621;52.830;6.914;2023-02-11T08:33:02;22.42;;;11.77;;
52724;SDS011;38621;52.830;6.914;2023-02-11T08:35:27;23.25;;;12.00;;
52724;SDS011;38621;52.830;6.914;2023-02-11T08:37:53;22.33;;;12.48;;
52724;SDS011;38621;52.830;6.914;2023-02-11T08:40:19;21.80;;;12.52;;
52724;SDS011;38621;52.830;6.914;2023-02-11T08:42:45;22.77;;;12.18;;
52724;SDS011;38621;52.830;6.914;2023-02-11T08:45:10;20.52;;;11.68;;
52724;SDS011;38621;52.830;6.914;2023-02-11T08:47:37;21.65;;;11.30;;
52724;SDS011;38621;52.830;6.914;2023-02-11T08:50:03;19.77;;;10.93;;
52724;SDS011;38621;52.830;6.914;2023-02-11T08:52:29;20.17;;;10.88;;
52724;SDS011;38621;52.830;6.914;2023-02-11T08:54:55;18.38;;;9.73;;
52724;SDS011;38621;52.830;6.914;2023-02-11T08:57:21;19.13;;;10.60;;
52724;SDS011;38621;52.830;6.914;2023-02-11T08:59:46;17.55;;;9.38;;
52724;SDS011;38621;52.830;6.914;2023-02-11T09:02:12;20.35;;;11.02;;
52724;SDS011;38621;52.830;6.914;2023-02-11T09:04:38;16.92;;;9.80;;
52724;SDS011;38621;52.830;6.914;2023-02-11T09:07:05;20.27;;;10.52;;
52724;SDS011;38621;52.830;6.914;2023-02-11T09:09:31;19.38;;;9.73;;
52724;SDS011;38621;52.830;6.914;2023-02-11T09:11:57;18.70;;;10.10;;
52724;SDS011;38621;52.830;6.914;2023-02-11T09:14:25;19.88;;;9.80;;
52724;SDS011;38621;52.830;6.914;2023-02-11T09:16:51;18.00;;;9.15;;
52724;SDS011;38621;52.830;6.914;2023-02-11T09:19:17;15.27;;;9.60;;
52724;SDS011;38621;52.830;6.914;2023-02-11T09:21:43;18.92;;;9.30;;
52724;SDS011;38621;52.830;6.914;2023-02-11T09:24:10;19.23;;;9.77;;
52724;SDS011;38621;52.830;6.914;2023-02-11T09:26:36;17.92;;;9.23;;
52724;SDS011;38621;52.830;6.914;2023-02-11T09:29:02;15.18;;;9.70;;
52724;SDS011;38621;52.830;6.914;2023-02-11T09:31:29;17.27;;;8.88;;
52724;SDS011;38621;52.830;6.914;2023-02-11T09:33:58;18.58;;;9.05;;
52724;SDS011;38621;52.830;6.914;2023-02-11T09:36:35;17.88;;;8.00;;
52724;SDS011;38621;52.830;6.914;2023-02-11T09:39:03;17.67;;;9.52;;
52724;SDS011;38621;52.830;6.914;2023-02-11T09:41:50;14.52;;;8.27;;
52724;SDS011;38621;52.830;6.914;2023-02-11T09:44:29;14.50;;;8.70;;
52724;SDS011;38621;52.830;6.914;2023-02-11T09:47:02;13.95;;;8.05;;
52724;SDS011;38621;52.830;6.914;2023-02-11T09:49:39;15.10;;;7.60;;
52724;SDS011;38621;52.830;6.914;2023-02-11T09:55:01;13.75;;;7.65;;
52724;SDS011;38621;52.830;6.914;2023-02-11T09:57:34;12.80;;;7.90;;
52724;SDS011;38621;52.830;6.914;2023-02-11T10:00:02;17.40;;;7.43;;
52724;SDS011;38621;52.830;6.914;2023-02-11T10:02:53;11.52;;;7.03;;
52724;SDS011;38621;52.830;6.914;2023-02-11T10:05:24;11.88;;;7.28;;
52724;SDS011;38621;52.830;6.914;2023-02-11T10:08:12;13.77;;;7.32;;
52724;SDS011;38621;52.830;6.914;2023-02-11T10:11:07;13.50;;;7.97;;
52724;SDS011;38621;52.830;6.914;2023-02-11T10:22:19;12.98;;;7.60;;
52724;SDS011;38621;52.830;6.914;2023-02-11T10:24:54;13.60;;;7.63;;
52724;SDS011;38621;52.830;6.914;2023-02-11T10:27:30;15.88;;;8.18;;
52724;SDS011;38621;52.830;6.914;2023-02-11T10:30:02;13.68;;;6.68;;
52724;SDS011;38621;52.830;6.914;2023-02-11T10:32:43;12.02;;;6.97;;
52724;SDS011;38621;52.830;6.914;2023-02-11T10:35:21;12.68;;;7.68;;
52724;SDS011;38621;52.830;6.914;2023-02-11T10:37:48;13.25;;;7.45;;
52724;SDS011;38621;52.830;6.914;2023-02-11T10:40:15;10.65;;;5.85;;
52724;SDS011;38621;52.830;6.914;2023-02-11T10:42:52;14.02;;;7.18;;
52724;SDS011;38621;52.830;6.914;2023-02-11T10:45:24;10.27;;;5.95;;
52724;SDS011;38621;52.830;6.914;2023-02-11T10:47:57;11.32;;;6.68;;
52724;SDS011;38621;52.830;6.914;2023-02-11T10:50:25;12.00;;;6.88;;
52724;SDS011;38621;52.830;6.914;2023-02-11T10:53:11;12.40;;;6.82;;
52724;SDS011;38621;52.830;6.914;2023-02-11T10:55:37;10.50;;;6.05;;
52724;SDS011;38621;52.830;6.914;2023-02-11T10:58:03;11.07;;;5.70;;
52724;SDS011;38621;52.830;6.914;2023-02-11T11:03:16;10.88;;;6.40;;
52724;SDS011;38621;52.830;6.914;2023-02-11T11:05:45;12.95;;;5.55;;
52724;SDS011;38621;52.830;6.914;2023-02-11T11:08:16;8.80;;;5.10;;
52724;SDS011;38621;52.830;6.914;2023-02-11T11:10:47;8.85;;;5.22;;
52724;SDS011;38621;52.830;6.914;2023-02-11T11:18:40;8.93;;;4.90;;
52724;SDS011;38621;52.830;6.914;2023-02-11T11:21:15;9.63;;;4.88;;
52724;SDS011;38621;52.830;6.914;2023-02-11T11:23:46;8.63;;;5.18;;
52724;SDS011;38621;52.830;6.914;2023-02-11T11:26:18;9.73;;;4.72;;
52724;SDS011;38621;52.830;6.914;2023-02-11T11:31:28;7.53;;;5.03;;
52724;SDS011;38621;52.830;6.914;2023-02-11T11:33:57;8.57;;;5.13;;
52724;SDS011;38621;52.830;6.914;2023-02-11T11:36:35;11.85;;;6.25;;
52724;SDS011;38621;52.830;6.914;2023-02-11T11:39:14;11.63;;;5.10;;
52724;SDS011;38621;52.830;6.914;2023-02-11T11:41:49;7.32;;;4.40;;
52724;SDS011;38621;52.830;6.914;2023-02-11T11:47:04;12.60;;;5.43;;
52724;SDS011;38621;52.830;6.914;2023-02-11T11:52:19;8.52;;;4.40;;
52724;SDS011;38621;52.830;6.914;2023-02-11T11:55:24;7.72;;;5.10;;
52724;SDS011;38621;52.830;6.914;2023-02-11T11:57:53;13.40;;;6.53;;
52724;SDS011;38621;52.830;6.914;2023-02-11T12:03:24;9.57;;;4.78;;
52724;SDS011;38621;52.830;6.914;2023-02-11T12:12:28;12.38;;;4.70;;
52724;SDS011;38621;52.830;6.914;2023-02-11T12:23:25;10.23;;;4.03;;
52724;SDS011;38621;52.830;6.914;2023-02-11T12:34:21;7.90;;;4.30;;
52724;SDS011;38621;52.830;6.914;2023-02-11T12:45:31;7.90;;;4.60;;
52724;SDS011;38621;52.830;6.914;2023-02-11T12:57:00;8.85;;;4.53;;
52724;SDS011;38621;52.830;6.914;2023-02-11T12:59:33;6.05;;;3.97;;
52724;SDS011;38621;52.830;6.914;2023-02-11T13:01:59;8.43;;;4.03;;
52724;SDS011;38621;52.830;6.914;2023-02-11T13:04:38;6.15;;;3.33;;
52724;SDS011;38621;52.830;6.914;2023-02-11T13:07:11;8.27;;;3.85;;
52724;SDS011;38621;52.830;6.914;2023-02-11T13:09:42;8.95;;;4.03;;
52724;SDS011;38621;52.830;6.914;2023-02-11T13:12:15;5.60;;;3.47;;
52724;SDS011;38621;52.830;6.914;2023-02-11T13:15:02;6.72;;;3.75;;
52724;SDS011;38621;52.830;6.914;2023-02-11T13:17:47;9.10;;;3.80;;
52724;SDS011;38621;52.830;6.914;2023-02-11T13:23:15;6.68;;;4.00;;
52724;SDS011;38621;52.830;6.914;2023-02-11T13:32:20;8.02;;;3.55;;
52724;SDS011;38621;52.830;6.914;2023-02-11T13:34:53;7.15;;;3.33;;
52724;SDS011;38621;52.830;6.914;2023-02-11T13:40:00;7.65;;;4.00;;
52724;SDS011;38621;52.830;6.914;2023-02-11T13:42:29;11.18;;;4.15;;
52724;SDS011;38621;52.830;6.914;2023-02-11T13:44:58;8.00;;;3.10;;
52724;SDS011;38621;52.830;6.914;2023-02-11T13:47:33;6.28;;;2.85;;
52724;SDS011;38621;52.830;6.914;2023-02-11T13:50:02;6.45;;;3.00;;
52724;SDS011;38621;52.830;6.914;2023-02-11T13:52:31;6.10;;;3.00;;
52724;SDS011;38621;52.830;6.914;2023-02-11T13:55:20;6.30;;;3.08;;
52724;SDS011;38621;52.830;6.914;2023-02-11T14:14:24;5.88;;;2.72;;
52724;SDS011;38621;52.830;6.914;2023-02-11T14:19:34;4.85;;;2.42;;
52724;SDS011;38621;52.830;6.914;2023-02-11T14:22:10;5.38;;;2.67;;
52724;SDS011;38621;52.830;6.914;2023-02-11T14:24:47;7.90;;;2.47;;
52724;SDS011;38621;52.830;6.914;2023-02-11T14:27:19;10.85;;;3.05;;
52724;SDS011;38621;52.830;6.914;2023-02-11T14:29:52;6.38;;;2.67;;
52724;SDS011;38621;52.830;6.914;2023-02-11T14:41:28;6.40;;;3.13;;
52724;SDS011;38621;52.830;6.914;2023-02-11T14:44:05;7.35;;;2.40;;
52724;SDS011;38621;52.830;6.914;2023-02-11T14:46:49;5.78;;;2.28;;
52724;SDS011;38621;52.830;6.914;2023-02-11T14:49:28;5.68;;;2.78;;
52724;SDS011;38621;52.830;6.914;2023-02-11T14:52:31;4.72;;;2.15;;
52724;SDS011;38621;52.830;6.914;2023-02-11T15:03:23;6.35;;;2.55;;
52724;SDS011;38621;52.830;6.914;2023-02-11T15:05:55;4.78;;;2.35;;
52724;SDS011;38621;52.830;6.914;2023-02-11T15:08:21;4.65;;;2.20;;
52724;SDS011;38621;52.830;6.914;2023-02-11T15:10:47;8.20;;;2.38;;
52724;SDS011;38621;52.830;6.914;2023-02-11T15:13:15;6.55;;;2.75;;
52724;SDS011;38621;52.830;6.914;2023-02-11T15:15:44;5.32;;;2.92;;
52724;SDS011;38621;52.830;6.914;2023-02-11T15:18:21;5.10;;;2.40;;
52724;SDS011;38621;52.830;6.914;2023-02-11T15:20:51;8.50;;;2.75;;
52724;SDS011;38621;52.830;6.914;2023-02-11T15:23:21;6.40;;;2.47;;
52724;SDS011;38621;52.830;6.914;2023-02-11T15:25:49;7.03;;;2.60;;
52724;SDS011;38621;52.830;6.914;2023-02-11T15:28:27;6.57;;;2.83;;
52724;SDS011;38621;52.830;6.914;2023-02-11T15:30:58;7.32;;;2.60;;
52724;SDS011;38621;52.830;6.914;2023-02-11T15:33:30;8.52;;;2.80;;
52724;SDS011;38621;52.830;6.914;2023-02-11T15:36:01;8.95;;;3.15;;
52724;SDS011;38621;52.830;6.914;2023-02-11T15:38:27;7.97;;;2.97;;
52724;SDS011;38621;52.830;6.914;2023-02-11T15:40:57;8.10;;;2.83;;
52724;SDS011;38621;52.830;6.914;2023-02-11T15:43:43;8.88;;;3.00;;
52724;SDS011;38621;52.830;6.914;2023-02-11T15:46:13;7.78;;;2.90;;
52724;SDS011;38621;52.830;6.914;2023-02-11T15:48:49;10.48;;;2.80;;
52724;SDS011;38621;52.830;6.914;2023-02-11T15:51:20;8.63;;;2.72;;
52724;SDS011;38621;52.830;6.914;2023-02-11T15:53:51;6.22;;;2.78;;
52724;SDS011;38621;52.830;6.914;2023-02-11T15:56:29;5.65;;;2.65;;
52724;SDS011;38621;52.830;6.914;2023-02-11T16:01:40;6.53;;;3.03;;
52724;SDS011;38621;52.830;6.914;2023-02-11T16:04:12;5.47;;;2.55;;
52724;SDS011;38621;52.830;6.914;2023-02-11T16:06:41;8.52;;;2.55;;
52724;SDS011;38621;52.830;6.914;2023-02-11T16:19:26;7.75;;;2.42;;
52724;SDS011;38621;52.830;6.914;2023-02-11T16:21:55;7.55;;;2.25;;
52724;SDS011;38621;52.830;6.914;2023-02-11T16:27:15;4.50;;;2.47;;
52724;SDS011;38621;52.830;6.914;2023-02-11T16:29:46;7.15;;;2.13;;
52724;SDS011;38621;52.830;6.914;2023-02-11T16:32:17;5.53;;;2.63;;
52724;SDS011;38621;52.830;6.914;2023-02-11T16:34:44;5.00;;;2.15;;
52724;SDS011;38621;52.830;6.914;2023-02-11T16:37:10;8.40;;;2.78;;
52724;SDS011;38621;52.830;6.914;2023-02-11T16:39:36;6.22;;;2.47;;
52724;SDS011;38621;52.830;6.914;2023-02-11T16:42:02;6.50;;;2.33;;
52724;SDS011;38621;52.830;6.914;2023-02-11T16:44:28;4.57;;;2.05;;
52724;SDS011;38621;52.830;6.914;2023-02-11T16:46:55;6.72;;;2.75;;
52724;SDS011;38621;52.830;6.914;2023-02-11T16:49:24;7.38;;;1.85;;
52724;SDS011;38621;52.830;6.914;2023-02-11T16:51:54;7.70;;;2.35;;
52724;SDS011;38621;52.830;6.914;2023-02-11T16:54:28;6.72;;;2.22;;
52724;SDS011;38621;52.830;6.914;2023-02-11T16:56:53;7.57;;;1.90;;
52724;SDS011;38621;52.830;6.914;2023-02-11T16:59:19;7.82;;;2.35;;
52724;SDS011;38621;52.830;6.914;2023-02-11T17:01:45;5.20;;;2.00;;
52724;SDS011;38621;52.830;6.914;2023-02-11T17:04:16;4.72;;;2.00;;
52724;SDS011;38621;52.830;6.914;2023-02-11T17:06:45;9.40;;;2.42;;
52724;SDS011;38621;52.830;6.914;2023-02-11T17:09:19;5.57;;;2.00;;
52724;SDS011;38621;52.830;6.914;2023-02-11T17:11:49;6.57;;;2.28;;
52724;SDS011;38621;52.830;6.914;2023-02-11T17:14:16;5.80;;;2.53;;
52724;SDS011;38621;52.830;6.914;2023-02-11T17:16:43;6.88;;;2.10;;
52724;SDS011;38621;52.830;6.914;2023-02-11T17:19:14;8.02;;;2.63;;
52724;SDS011;38621;52.830;6.914;2023-02-11T17:21:41;9.15;;;2.35;;
52724;SDS011;38621;52.830;6.914;2023-02-11T17:24:08;5.07;;;2.10;;
52724;SDS011;38621;52.830;6.914;2023-02-11T17:26:34;4.22;;;1.83;;
52724;SDS011;38621;52.830;6.914;2023-02-11T17:29:03;5.35;;;2.00;;
52724;SDS011;38621;52.830;6.914;2023-02-11T17:31:30;9.00;;;2.20;;
52724;SDS011;38621;52.830;6.914;2023-02-11T17:33:55;7.07;;;2.35;;
52724;SDS011;38621;52.830;6.914;2023-02-11T17:36:21;5.25;;;2.25;;
52724;SDS011;38621;52.830;6.914;2023-02-11T17:38:47;6.60;;;2.15;;
52724;SDS011;38621;52.830;6.914;2023-02-11T17:41:13;5.97;;;2.38;;
52724;SDS011;38621;52.830;6.914;2023-02-11T17:43:38;8.20;;;2.78;;
52724;SDS011;38621;52.830;6.914;2023-02-11T17:46:05;5.38;;;1.88;;